Time;durP1;ratioP1;P1;durP2;ratioP2;P2;SDS_P1;SDS_P2;PMS_P1;PMS_P2;Temp;Humidity;BMP_temperature;BMP_pressure;BME280_temperature;BME280_humidity;BME280_pressure;Samples;Min_cycle;Max_cycle;Signal;HPM_P1;HPM_P2
2022/03/18 00:00:58;;;;;;;7.15;2.70;;;5.30;98.70;;;;;;5075023;28;20484;-43
2022/03/18 00:03:23;;;;;;;7.40;2.72;;;5.20;98.80;;;;;;5065801;28;20032;-43
2022/03/18 00:05:49;;;;;;;8.45;3.38;;;5.20;98.90;;;;;;5075936;28;20062;-41
2022/03/18 00:08:15;;;;;;;8.23;2.85;;;5.20;99.00;;;;;;5066311;28;20029;-44
2022/03/18 00:10:40;;;;;;;5.60;2.50;;;5.20;99.10;;;;;;5075352;28;20035;-43
2022/03/18 00:13:09;;;;;;;5.20;2.80;;;5.20;99.20;;;;;;5065356;28;20029;-42
2022/03/18 00:15:35;;;;;;;8.77;3.05;;;5.10;99.30;;;;;;5077673;28;20051;-42
2022/03/18 00:18:00;;;;;;;7.47;3.60;;;5.10;99.30;;;;;;5064213;28;20511;-42
2022/03/18 00:20:26;;;;;;;8.45;3.75;;;5.10;99.40;;;;;;5077232;28;20032;-42
2022/03/18 00:22:52;;;;;;;10.15;4.13;;;5.10;99.40;;;;;;5063994;28;20093;-42
2022/03/18 00:25:18;;;;;;;12.65;4.68;;;5.10;99.50;;;;;;5078562;28;20080;-42
2022/03/18 00:27:45;;;;;;;14.27;5.47;;;5.10;99.60;;;;;;5070953;28;20017;-43
2022/03/18 00:30:12;;;;;;;10.77;4.70;;;5.00;99.70;;;;;;5075572;28;20024;-42
2022/03/18 00:32:42;;;;;;;8.70;3.55;;;5.00;99.80;;;;;;5073371;28;20036;-42
2022/03/18 00:35:09;;;;;;;9.13;4.00;;;4.90;99.90;;;;;;5073925;28;20063;-43
2022/03/18 00:37:35;;;;;;;8.98;3.50;;;4.90;99.90;;;;;;5074793;28;20028;-42
2022/03/18 00:40:01;;;;;;;5.95;3.20;;;4.90;99.90;;;;;;5071397;28;20036;-44
2022/03/18 00:42:27;;;;;;;10.10;4.30;;;4.90;99.90;;;;;;5077116;28;20044;-42
2022/03/18 00:44:52;;;;;;;8.40;3.58;;;4.90;99.90;;;;;;5068808;28;20089;-39
2022/03/18 00:52:47;;;;;;;4.30;2.40;;;4.90;99.90;;;;;;5078492;28;20039;-42
2022/03/18 00:55:12;;;;;;;5.03;2.45;;;4.90;99.90;;;;;;5087408;28;20028;-42
2022/03/18 00:57:38;;;;;;;3.78;2.38;;;4.80;99.90;;;;;;5076558;28;20076;-40
2022/03/18 01:00:05;;;;;;;4.82;2.20;;;4.80;99.90;;;;;;5086548;28;20123;-43
2022/03/18 01:02:31;;;;;;;9.05;2.40;;;4.80;99.90;;;;;;5076509;28;20024;-43
2022/03/18 01:04:56;;;;;;;6.53;2.50;;;4.80;99.90;;;;;;5087711;28;20101;-42
2022/03/18 01:07:22;;;;;;;6.20;2.45;;;4.80;99.90;;;;;;5074863;28;20016;-43
2022/03/18 01:09:47;;;;;;;5.75;2.20;;;4.80;99.90;;;;;;5087496;28;20131;-42
2022/03/18 01:12:13;;;;;;;8.02;2.28;;;4.80;99.90;;;;;;5075051;28;20480;-42
2022/03/18 01:14:39;;;;;;;8.32;2.47;;;4.80;99.90;;;;;;5088118;28;20035;-42
2022/03/18 01:17:04;;;;;;;5.22;2.17;;;4.80;99.90;;;;;;5077202;28;20028;-43
2022/03/18 01:19:30;;;;;;;5.18;2.25;;;4.80;99.90;;;;;;5085435;28;20040;-44
2022/03/18 01:21:55;;;;;;;4.78;2.30;;;4.80;99.90;;;;;;5079388;28;20031;-43
2022/03/18 01:24:21;;;;;;;6.20;2.00;;;4.80;99.90;;;;;;5083207;28;20506;-42
2022/03/18 01:26:46;;;;;;;6.60;2.70;;;4.80;99.90;;;;;;5081912;28;20039;-44
2022/03/18 01:29:12;;;;;;;6.65;2.20;;;4.90;99.90;;;;;;5080364;28;20027;-41
2022/03/18 01:31:37;;;;;;;5.15;3.00;;;4.80;99.90;;;;;;5084835;28;20909;-43
2022/03/18 01:34:03;;;;;;;7.53;2.60;;;4.80;99.90;;;;;;5076666;28;20034;-43
2022/03/18 01:36:29;;;;;;;5.88;2.35;;;4.80;99.90;;;;;;5084930;28;20028;-43
2022/03/18 01:38:54;;;;;;;6.80;2.65;;;4.70;99.90;;;;;;5075744;28;20547;-41
2022/03/18 01:41:20;;;;;;;4.40;2.33;;;4.70;99.90;;;;;;5086102;28;20040;-42
2022/03/18 01:43:47;;;;;;;6.88;3.00;;;4.70;99.90;;;;;;5075423;28;20048;-42
2022/03/18 01:46:14;;;;;;;8.82;2.80;;;4.70;99.90;;;;;;5087918;28;20039;-43
2022/03/18 01:48:40;;;;;;;6.63;2.45;;;4.60;99.90;;;;;;5073374;28;20024;-42
2022/03/18 01:51:07;;;;;;;4.95;2.45;;;4.60;99.90;;;;;;5087649;28;20040;-43
2022/03/18 01:53:34;;;;;;;6.13;2.65;;;4.50;99.90;;;;;;5074494;28;20028;-43
2022/03/18 01:56:00;;;;;;;8.20;2.88;;;4.50;99.90;;;;;;5086771;28;20034;-43
2022/03/18 01:58:26;;;;;;;5.35;2.63;;;4.50;99.90;;;;;;5076492;28;20114;-43
2022/03/18 02:00:51;;;;;;;6.18;2.70;;;4.50;99.90;;;;;;5084670;28;20040;-43
2022/03/18 02:03:17;;;;;;;4.00;2.47;;;4.40;99.90;;;;;;5078578;28;20028;-43
2022/03/18 02:05:43;;;;;;;5.63;2.70;;;4.40;99.90;;;;;;5081827;28;20035;-44
2022/03/18 02:08:09;;;;;;;10.00;3.25;;;4.40;99.90;;;;;;5082062;28;20070;-42
2022/03/18 02:10:36;;;;;;;6.28;2.92;;;4.40;99.90;;;;;;5078602;28;20097;-44
2022/03/18 02:13:02;;;;;;;6.22;2.53;;;4.30;99.90;;;;;;5084337;28;20024;-42
2022/03/18 02:15:28;;;;;;;6.57;2.70;;;4.30;99.90;;;;;;5076468;28;20101;-43
2022/03/18 02:17:54;;;;;;;6.28;2.75;;;4.30;99.90;;;;;;5085475;28;20021;-43
2022/03/18 02:20:20;;;;;;;5.90;2.58;;;4.30;99.90;;;;;;5075432;28;20055;-44
2022/03/18 02:22:46;;;;;;;10.10;2.85;;;4.30;99.90;;;;;;5083929;28;20051;-43
2022/03/18 02:25:14;;;;;;;5.10;2.63;;;4.20;99.90;;;;;;5075858;28;20133;-43
2022/03/18 02:27:52;;;;;;;4.72;2.20;;;4.20;99.90;;;;;;5086650;28;20387;-42
2022/03/18 02:30:17;;;;;;;3.55;2.00;;;4.20;99.90;;;;;;5074097;28;20387;-42
2022/03/18 02:32:43;;;;;;;6.78;2.50;;;4.20;99.90;;;;;;5086460;28;20024;-42
2022/03/18 02:35:08;;;;;;;3.83;2.03;;;4.20;99.90;;;;;;5073395;28;20055;-43
2022/03/18 02:37:34;;;;;;;8.38;2.55;;;4.20;99.90;;;;;;5085687;28;20028;-43
2022/03/18 02:39:59;;;;;;;7.18;2.10;;;4.20;99.90;;;;;;5074539;28;20148;-44
2022/03/18 02:42:25;;;;;;;7.65;2.40;;;4.30;99.90;;;;;;5085603;28;20105;-42
2022/03/18 02:44:50;;;;;;;4.57;2.17;;;4.30;99.90;;;;;;5075752;28;20388;-43
2022/03/18 02:47:16;;;;;;;6.13;2.20;;;4.30;99.90;;;;;;5082512;28;20027;-42
2022/03/18 02:49:42;;;;;;;4.13;2.35;;;4.30;99.90;;;;;;5072119;28;20020;-43
2022/03/18 02:52:07;;;;;;;6.18;2.30;;;4.30;99.90;;;;;;5071719;28;20031;-42
2022/03/18 02:54:34;;;;;;;4.38;1.90;;;4.30;99.90;;;;;;5070120;28;20070;-43
2022/03/18 02:57:00;;;;;;;4.00;1.65;;;4.30;99.90;;;;;;5074394;28;20350;-43
2022/03/18 02:59:26;;;;;;;6.85;2.20;;;4.30;99.90;;;;;;5066539;28;20139;-41
2022/03/18 03:01:51;;;;;;;5.38;1.85;;;4.30;99.90;;;;;;5074591;28;20031;-42
2022/03/18 03:04:17;;;;;;;5.65;2.17;;;4.40;99.90;;;;;;5084796;28;20020;-43
2022/03/18 03:09:27;;;;;;;4.30;1.83;;;4.30;99.90;;;;;;5084629;28;20095;-43
2022/03/18 03:11:53;;;;;;;10.07;3.42;;;4.30;99.90;;;;;;5073208;28;20538;-44
2022/03/18 03:14:18;;;;;;;4.40;2.20;;;4.20;99.90;;;;;;5085856;28;20657;-42
2022/03/18 03:16:44;;;;;;;6.05;2.38;;;4.10;99.90;;;;;;5072805;28;20032;-42
2022/03/18 03:19:09;;;;;;;4.68;2.03;;;4.10;99.90;;;;;;5085156;28;20021;-43
2022/03/18 03:21:35;;;;;;;6.65;2.28;;;4.10;99.90;;;;;;5073203;28;20741;-42
2022/03/18 03:24:01;;;;;;;4.72;2.15;;;4.10;99.90;;;;;;5085593;28;20036;-43
2022/03/18 03:26:27;;;;;;;5.20;2.30;;;4.00;99.90;;;;;;5073988;28;20743;-44
2022/03/18 03:28:53;;;;;;;6.50;2.30;;;4.10;99.90;;;;;;5083599;28;20019;-43
2022/03/18 03:31:19;;;;;;;3.60;1.85;;;4.10;99.90;;;;;;5077559;28;20059;-42
2022/03/18 03:33:45;;;;;;;3.92;2.10;;;4.00;99.90;;;;;;5080723;28;20020;-42
2022/03/18 03:36:11;;;;;;;3.40;2.25;;;4.00;99.90;;;;;;5079753;28;20043;-42
2022/03/18 03:38:36;;;;;;;6.80;2.03;;;4.00;99.90;;;;;;5078905;28;20024;-43
2022/03/18 03:41:02;;;;;;;7.03;2.00;;;4.00;99.90;;;;;;5081465;28;20063;-43
2022/03/18 03:43:28;;;;;;;5.45;2.10;;;3.90;99.90;;;;;;5076562;28;20028;-42
2022/03/18 03:45:53;;;;;;;5.35;2.40;;;3.90;99.90;;;;;;5083428;28;20024;-43
2022/03/18 03:48:19;;;;;;;6.50;2.30;;;3.90;99.90;;;;;;5073439;28;20020;-43
2022/03/18 03:50:44;;;;;;;6.78;2.20;;;3.90;99.90;;;;;;5084119;28;20030;-43
2022/03/18 03:53:10;;;;;;;6.95;2.50;;;3.90;99.90;;;;;;5074133;28;20133;-43
2022/03/18 03:55:39;;;;;;;6.38;2.10;;;3.80;99.90;;;;;;5084632;28;20024;-43
2022/03/18 03:58:06;;;;;;;7.55;2.42;;;3.80;99.90;;;;;;5072248;28;20033;-41
2022/03/18 04:00:32;;;;;;;6.43;2.28;;;3.80;99.90;;;;;;5089625;28;20100;-42
2022/03/18 04:02:57;;;;;;;5.22;2.08;;;3.80;99.90;;;;;;5075874;28;20025;-42
2022/03/18 04:05:23;;;;;;;6.50;1.80;;;3.80;99.90;;;;;;5089756;28;20117;-43
2022/03/18 04:07:49;;;;;;;3.75;2.00;;;3.80;99.90;;;;;;5077732;28;20423;-43
2022/03/18 04:10:14;;;;;;;5.55;2.05;;;3.70;99.90;;;;;;5087667;28;20081;-43
2022/03/18 04:12:40;;;;;;;3.05;1.60;;;3.70;99.90;;;;;;5080988;28;20019;-42
2022/03/18 04:15:10;;;;;;;6.25;2.22;;;3.70;99.90;;;;;;5084250;28;20032;-43
2022/03/18 04:17:55;;;;;;;5.97;2.15;;;3.70;99.90;;;;;;5082807;28;20012;-43
2022/03/18 04:20:22;;;;;;;5.30;2.83;;;3.60;99.90;;;;;;5085158;28;20566;-44
2022/03/18 04:22:49;;;;;;;3.17;1.70;;;3.60;99.90;;;;;;5081853;28;20029;-43
2022/03/18 04:25:15;;;;;;;6.65;2.05;;;3.60;99.90;;;;;;5083380;28;20038;-43
2022/03/18 04:27:42;;;;;;;4.43;2.30;;;3.60;99.90;;;;;;5084065;28;20383;-43
2022/03/18 04:30:10;;;;;;;4.03;2.40;;;3.60;99.90;;;;;;5080275;28;20112;-42
2022/03/18 04:32:36;;;;;;;4.82;1.95;;;3.60;99.90;;;;;;5086981;28;20055;-43
2022/03/18 04:35:02;;;;;;;6.40;2.10;;;3.60;99.90;;;;;;5077864;28;20024;-43
2022/03/18 04:37:27;;;;;;;4.78;2.25;;;3.60;99.90;;;;;;5086173;28;20039;-42
2022/03/18 04:39:53;;;;;;;7.60;2.53;;;3.60;99.90;;;;;;5077234;28;20040;-43
2022/03/18 04:42:19;;;;;;;7.45;2.53;;;3.60;99.90;;;;;;5088535;28;20048;-43
2022/03/18 04:44:44;;;;;;;6.63;2.17;;;3.50;99.90;;;;;;5075200;28;20106;-43
2022/03/18 04:47:11;;;;;;;6.80;2.50;;;3.50;99.90;;;;;;5089243;28;20638;-42
2022/03/18 04:49:39;;;;;;;5.18;2.40;;;3.50;99.90;;;;;;5081524;28;20042;-41
2022/03/18 04:52:05;;;;;;;6.03;2.47;;;3.50;99.90;;;;;;5067617;28;20543;-43
2022/03/18 04:54:31;;;;;;;5.45;2.53;;;3.50;99.90;;;;;;5080864;28;20024;-41
2022/03/18 04:57:15;;;;;;;5.63;2.30;;;3.40;99.90;;;;;;5068104;28;20098;-43
2022/03/18 04:59:41;;;;;;;5.82;2.25;;;3.40;99.90;;;;;;5079638;28;20040;-44
2022/03/18 05:02:07;;;;;;;6.22;3.05;;;3.40;99.90;;;;;;5068674;28;20033;-43
2022/03/18 05:04:33;;;;;;;6.13;3.40;;;3.40;99.90;;;;;;5076690;28;20085;-42
2022/03/18 05:06:59;;;;;;;6.57;3.63;;;3.40;99.90;;;;;;5071499;28;20021;-43
2022/03/18 05:09:25;;;;;;;6.82;3.38;;;3.40;99.90;;;;;;5074587;28;20035;-43
2022/03/18 05:11:51;;;;;;;8.93;3.15;;;3.40;99.90;;;;;;5072612;28;20779;-44
2022/03/18 05:14:16;;;;;;;5.60;3.15;;;3.40;99.90;;;;;;5072216;28;20019;-43
2022/03/18 05:16:42;;;;;;;5.88;3.38;;;3.40;99.90;;;;;;5075652;28;20031;-43
2022/03/18 05:19:09;;;;;;;6.60;3.70;;;3.40;99.90;;;;;;5069050;28;20062;-44
2022/03/18 05:21:35;;;;;;;8.02;4.03;;;3.40;99.90;;;;;;5078823;28;20036;-42
2022/03/18 05:24:00;;;;;;;9.18;3.88;;;3.40;99.90;;;;;;5069046;28;20787;-43
2022/03/18 05:26:26;;;;;;;8.57;3.80;;;3.30;99.90;;;;;;5078117;28;20028;-42
2022/03/18 05:28:52;;;;;;;6.65;3.45;;;3.30;99.90;;;;;;5067886;28;20352;-44
2022/03/18 05:31:17;;;;;;;7.70;4.10;;;3.30;99.90;;;;;;5080091;28;20016;-43
2022/03/18 05:33:43;;;;;;;6.85;3.60;;;3.30;99.90;;;;;;5066534;28;20024;-43
2022/03/18 05:36:08;;;;;;;6.75;3.92;;;3.30;99.90;;;;;;5080192;28;20106;-43
2022/03/18 05:38:34;;;;;;;7.72;3.83;;;3.30;99.90;;;;;;5067292;28;20029;-42
2022/03/18 05:40:59;;;;;;;7.88;4.20;;;3.30;99.90;;;;;;5078053;28;20463;-43
2022/03/18 05:43:25;;;;;;;7.38;3.95;;;3.20;99.90;;;;;;5068627;28;20020;-44
2022/03/18 05:45:50;;;;;;;7.40;4.55;;;3.20;99.90;;;;;;5075756;28;20020;-43
2022/03/18 05:48:16;;;;;;;9.77;5.45;;;3.20;99.90;;;;;;5070573;28;20467;-45
2022/03/18 05:50:42;;;;;;;9.05;4.90;;;3.20;99.90;;;;;;5072355;28;20432;-43
2022/03/18 05:53:07;;;;;;;7.47;5.43;;;3.20;99.90;;;;;;5074065;28;20158;-43
2022/03/18 05:58:21;;;;;;;9.13;5.38;;;3.10;99.90;;;;;;5073170;28;20054;-44
2022/03/18 06:00:47;;;;;;;7.25;5.50;;;3.10;99.90;;;;;;5069645;28;20043;-43
2022/03/18 06:03:13;;;;;;;9.15;5.35;;;3.10;99.90;;;;;;5075741;28;20502;-42
2022/03/18 06:05:40;;;;;;;8.25;5.10;;;3.10;99.90;;;;;;5068175;28;20072;-43
2022/03/18 06:13:33;;;;;;;7.05;4.97;;;3.10;99.90;;;;;;5075407;28;20593;-42
2022/03/18 06:15:59;;;;;;;7.45;5.03;;;3.10;99.90;;;;;;5066523;28;20030;-43
2022/03/18 06:18:24;;;;;;;9.70;5.13;;;3.10;99.90;;;;;;5078219;28;20038;-42
2022/03/18 06:20:51;;;;;;;9.32;5.82;;;3.20;99.90;;;;;;5066727;28;20044;-42
2022/03/18 06:23:16;;;;;;;9.45;5.38;;;3.10;99.90;;;;;;5077232;28;20021;-43
2022/03/18 06:25:43;;;;;;;8.15;5.28;;;3.20;99.90;;;;;;5066703;28;20032;-43
2022/03/18 06:28:08;;;;;;;7.43;5.22;;;3.20;99.90;;;;;;5078479;28;20050;-43
2022/03/18 06:30:34;;;;;;;8.18;5.03;;;3.20;99.90;;;;;;5065477;28;20768;-44
2022/03/18 06:33:00;;;;;;;8.63;4.88;;;3.20;99.90;;;;;;5078820;28;20033;-43
2022/03/18 06:35:25;;;;;;;10.18;5.50;;;3.20;99.90;;;;;;5066547;28;20112;-42
2022/03/18 06:37:51;;;;;;;7.60;5.30;;;3.30;99.90;;;;;;5076086;28;20030;-42
2022/03/18 06:40:16;;;;;;;9.70;5.35;;;3.30;99.90;;;;;;5081560;28;20075;-44
2022/03/18 06:42:42;;;;;;;6.32;4.78;;;3.30;99.90;;;;;;5076799;28;20059;-44
2022/03/18 06:45:08;;;;;;;6.82;4.63;;;3.40;99.90;;;;;;5080051;28;20382;-43
2022/03/18 06:47:34;;;;;;;7.57;4.68;;;3.40;99.90;;;;;;5090940;28;20032;-43
2022/03/18 06:49:59;;;;;;;9.98;5.40;;;3.40;99.90;;;;;;5086190;28;20440;-42
2022/03/18 06:52:25;;;;;;;8.40;4.75;;;3.40;99.90;;;;;;5082372;28;20154;-43
2022/03/18 06:54:50;;;;;;;5.88;4.05;;;3.50;99.90;;;;;;5075537;28;20028;-44
2022/03/18 06:57:16;;;;;;;6.95;4.32;;;3.50;99.90;;;;;;5082546;28;20052;-44
2022/03/18 06:59:41;;;;;;;9.65;4.80;;;3.50;99.90;;;;;;5073746;28;20997;-42
2022/03/18 07:02:07;;;;;;;7.05;4.32;;;3.60;99.90;;;;;;5084253;28;20024;-43
2022/03/18 07:04:32;;;;;;;6.47;3.80;;;3.60;99.90;;;;;;5072589;28;20734;-43
2022/03/18 07:06:58;;;;;;;6.63;3.80;;;3.60;99.90;;;;;;5085465;28;20032;-43
2022/03/18 07:09:23;;;;;;;8.82;3.92;;;3.70;99.90;;;;;;5072139;28;20036;-44
2022/03/18 07:11:49;;;;;;;6.10;3.55;;;3.70;99.90;;;;;;5084795;28;20036;-42
2022/03/18 07:14:14;;;;;;;5.60;3.28;;;3.80;99.90;;;;;;5072650;28;20086;-43
2022/03/18 07:19:25;;;;;;;5.07;3.42;;;3.90;99.90;;;;;;5071501;28;20447;-43
2022/03/18 07:21:51;;;;;;;7.07;3.20;;;3.90;99.90;;;;;;5085089;28;20036;-44
2022/03/18 07:24:16;;;;;;;9.10;3.17;;;4.00;99.90;;;;;;5072856;28;20021;-42
2022/03/18 07:26:42;;;;;;;6.97;3.60;;;4.00;99.90;;;;;;5081362;28;20024;-44
2022/03/18 07:29:07;;;;;;;5.72;3.10;;;4.10;99.90;;;;;;5077016;28;20599;-42
2022/03/18 07:31:33;;;;;;;7.70;3.70;;;4.10;99.90;;;;;;5079836;28;20067;-42
2022/03/18 07:33:59;;;;;;;7.13;3.50;;;4.20;99.90;;;;;;5084072;28;20074;-43
2022/03/18 07:36:25;;;;;;;6.15;3.83;;;4.30;99.90;;;;;;5072800;28;20055;-43
2022/03/18 07:38:50;;;;;;;8.57;3.70;;;4.40;99.90;;;;;;5065453;28;20523;-42
2022/03/18 07:41:17;;;;;;;6.47;3.65;;;4.40;99.90;;;;;;5074903;28;20758;-43
2022/03/18 07:43:42;;;;;;;11.73;3.80;;;4.50;99.90;;;;;;5065362;28;20073;-44
2022/03/18 07:46:08;;;;;;;8.88;3.78;;;4.60;99.90;;;;;;5075376;28;20028;-42
2022/03/18 07:48:34;;;;;;;7.18;3.33;;;4.60;99.90;;;;;;5078651;28;20024;-43
2022/03/18 07:50:59;;;;;;;5.85;3.17;;;4.70;99.90;;;;;;5082078;28;20051;-43
2022/03/18 07:53:25;;;;;;;8.82;3.67;;;4.80;99.90;;;;;;5084653;28;20032;-43
2022/03/18 07:55:50;;;;;;;7.85;3.75;;;4.90;99.90;;;;;;5072244;28;20080;-44
2022/03/18 07:58:16;;;;;;;4.65;3.10;;;5.00;99.90;;;;;;5085383;28;20109;-43
2022/03/18 08:00:43;;;;;;;6.95;3.35;;;5.10;99.90;;;;;;5072307;28;20086;-45
2022/03/18 08:03:08;;;;;;;7.90;3.80;;;5.10;99.90;;;;;;5084852;28;20121;-43
2022/03/18 08:05:35;;;;;;;5.90;3.38;;;5.20;99.90;;;;;;5075362;28;20414;-44
2022/03/18 08:08:01;;;;;;;6.82;3.53;;;5.30;99.90;;;;;;5081263;28;20028;-43
2022/03/18 08:10:26;;;;;;;7.05;3.65;;;5.30;99.90;;;;;;5078276;28;20024;-43
2022/03/18 08:12:53;;;;;;;6.97;3.45;;;5.40;99.90;;;;;;5079270;28;20024;-42
2022/03/18 08:15:20;;;;;;;5.22;3.50;;;5.40;99.90;;;;;;5080233;28;20031;-43
2022/03/18 08:17:51;;;;;;;6.00;3.55;;;5.50;99.90;;;;;;5076359;28;20052;-43
2022/03/18 08:20:18;;;;;;;6.75;3.30;;;5.60;99.90;;;;;;5082397;28;20028;-43
2022/03/18 08:22:43;;;;;;;7.43;4.85;;;5.60;99.90;;;;;;5054368;28;20023;-42
2022/03/18 08:25:10;;;;;;;7.72;3.90;;;5.70;99.90;;;;;;5066838;28;20036;-41
2022/03/18 08:27:36;;;;;;;6.38;3.50;;;5.70;99.90;;;;;;5075807;28;20452;-43
2022/03/18 08:30:05;;;;;;;7.53;3.10;;;5.80;99.90;;;;;;5065280;28;20101;-43
2022/03/18 08:32:30;;;;;;;6.78;3.40;;;5.90;99.90;;;;;;5075935;28;20108;-42
2022/03/18 08:34:57;;;;;;;5.72;3.13;;;5.90;99.90;;;;;;5064638;28;20460;-43
2022/03/18 08:40:07;;;;;;;6.97;3.50;;;6.10;99.90;;;;;;5065219;28;20609;-43
2022/03/18 08:42:34;;;;;;;6.20;3.20;;;6.20;99.90;;;;;;5075997;28;20024;-43
2022/03/18 08:45:00;;;;;;;9.23;3.58;;;6.30;99.90;;;;;;5066608;28;20024;-43
2022/03/18 08:47:26;;;;;;;5.43;3.00;;;6.30;99.90;;;;;;5081130;28;20036;-42
2022/03/18 08:49:52;;;;;;;6.35;3.28;;;6.40;99.90;;;;;;5067143;28;20025;-40
2022/03/18 08:52:17;;;;;;;5.57;2.97;;;6.50;99.90;;;;;;5078785;28;20387;-43
2022/03/18 08:54:43;;;;;;;7.68;3.33;;;6.50;99.90;;;;;;5069625;28;20025;-44
2022/03/18 08:57:10;;;;;;;6.63;3.10;;;6.60;99.90;;;;;;5075242;28;20044;-42
2022/03/18 08:59:35;;;;;;;7.32;3.10;;;6.70;99.90;;;;;;5072410;28;20506;-43
2022/03/18 09:02:01;;;;;;;7.38;3.30;;;6.70;99.90;;;;;;5073157;28;20466;-43
2022/03/18 09:04:26;;;;;;;5.13;2.83;;;6.80;99.90;;;;;;5074287;28;20059;-42
2022/03/18 09:06:52;;;;;;;5.97;2.90;;;6.90;99.90;;;;;;5069937;28;20020;-43
2022/03/18 09:09:17;;;;;;;8.02;3.45;;;6.90;99.90;;;;;;5080967;28;20700;-43
2022/03/18 09:11:43;;;;;;;7.00;3.15;;;7.00;99.90;;;;;;5085321;28;20035;-42
2022/03/18 09:14:10;;;;;;;5.22;3.03;;;7.10;99.90;;;;;;5076509;28;20027;-42
2022/03/18 09:16:38;;;;;;;7.10;3.20;;;7.20;99.90;;;;;;5086886;28;20531;-42
2022/03/18 09:19:07;;;;;;;5.90;2.88;;;7.30;99.90;;;;;;5074962;28;20032;-42
2022/03/18 09:21:33;;;;;;;6.00;2.67;;;7.40;99.90;;;;;;5087912;28;20039;-43
2022/03/18 09:23:59;;;;;;;4.90;2.88;;;7.40;99.90;;;;;;5074947;28;20069;-43
2022/03/18 09:26:24;;;;;;;5.75;2.80;;;7.50;99.90;;;;;;5087476;28;20035;-43
2022/03/18 09:28:51;;;;;;;5.43;2.80;;;7.50;99.90;;;;;;5073906;28;20036;-44
2022/03/18 09:31:16;;;;;;;6.18;2.50;;;7.60;99.90;;;;;;5088293;28;20070;-43
2022/03/18 09:33:42;;;;;;;5.55;2.55;;;7.60;99.90;;;;;;5075262;28;20060;-43
2022/03/18 09:36:11;;;;;;;6.72;2.75;;;7.70;99.90;;;;;;5086231;28;20127;-42
2022/03/18 09:38:37;;;;;;;6.45;2.58;;;7.80;99.90;;;;;;5077674;28;20055;-43
2022/03/18 09:41:03;;;;;;;4.32;2.42;;;7.80;99.90;;;;;;5083713;28;20097;-42
2022/03/18 09:43:37;;;;;;;4.78;3.00;;;7.90;99.90;;;;;;5080736;28;20461;-43
2022/03/18 09:46:08;;;;;;;7.13;2.95;;;8.00;99.90;;;;;;5080109;28;20051;-44
2022/03/18 09:48:34;;;;;;;8.10;2.38;;;8.10;99.90;;;;;;5082293;28;20052;-42
2022/03/18 09:51:00;;;;;;;4.38;2.42;;;8.10;99.90;;;;;;5073811;28;20819;-42
2022/03/18 09:53:26;;;;;;;5.25;2.88;;;8.20;99.90;;;;;;5070035;28;20035;-43
2022/03/18 09:55:51;;;;;;;4.93;3.03;;;8.30;99.90;;;;;;5075153;28;20111;-43
2022/03/18 09:58:17;;;;;;;5.50;2.47;;;8.40;99.90;;;;;;5067914;28;20104;-42
2022/03/18 10:00:43;;;;;;;7.35;2.50;;;8.40;99.90;;;;;;5076995;28;20058;-43
2022/03/18 10:03:19;;;;;;;4.25;1.90;;;8.50;99.90;;;;;;5068164;28;20020;-44
2022/03/18 10:05:53;;;;;;;4.72;2.22;;;8.70;99.90;;;;;;5077950;28;20031;-42
2022/03/18 10:08:21;;;;;;;6.30;2.42;;;8.80;99.90;;;;;;5069261;28;20476;-41
2022/03/18 10:10:47;;;;;;;3.00;2.03;;;8.90;99.90;;;;;;5077473;28;20604;-45
2022/03/18 10:13:14;;;;;;;5.72;2.00;;;9.00;99.90;;;;;;5066786;28;20880;-42
2022/03/18 10:15:40;;;;;;;4.57;2.60;;;9.10;99.90;;;;;;5073676;28;20027;-42
2022/03/18 10:18:13;;;;;;;7.30;2.22;;;9.10;99.90;;;;;;5087119;28;20036;-42
2022/03/18 10:20:47;;;;;;;6.20;2.42;;;9.20;99.90;;;;;;5079455;28;20451;-43
2022/03/18 10:23:15;;;;;;;5.68;2.28;;;9.20;99.90;;;;;;5093351;28;20071;-43
2022/03/18 10:25:50;;;;;;;5.00;2.65;;;9.30;99.90;;;;;;5084006;28;20039;-43
2022/03/18 10:28:36;;;;;;;5.82;2.38;;;9.30;99.90;;;;;;5065985;28;20047;-43
2022/03/18 10:31:11;;;;;;;4.30;2.40;;;9.40;99.90;;;;;;5077722;28;20036;-44
2022/03/18 10:39:26;;;;;;;6.85;2.67;;;9.70;99.90;;;;;;5085314;28;20128;-43
2022/03/18 10:41:52;;;;;;;5.22;2.45;;;9.80;99.90;;;;;;5076545;28;20583;-44
2022/03/18 10:44:19;;;;;;;4.75;2.53;;;9.90;99.90;;;;;;5066083;28;20025;-44
2022/03/18 10:46:45;;;;;;;4.45;2.40;;;9.90;99.90;;;;;;5077685;28;20376;-42
2022/03/18 10:49:10;;;;;;;8.13;2.65;;;10.10;99.90;;;;;;5066000;28;20036;-43
2022/03/18 10:51:40;;;;;;;3.85;2.17;;;10.10;99.90;;;;;;5078384;28;20162;-43
2022/03/18 10:54:06;;;;;;;5.05;2.30;;;10.20;99.90;;;;;;5066602;28;20089;-44
2022/03/18 10:56:53;;;;;;;5.50;2.50;;;10.30;99.90;;;;;;5076647;28;20421;-42
2022/03/18 10:59:19;;;;;;;7.40;2.58;;;10.40;99.90;;;;;;5065616;28;20546;-43
2022/03/18 11:01:50;;;;;;;5.07;2.33;;;10.50;99.90;;;;;;5077221;28;20036;-43
2022/03/18 11:04:16;;;;;;;5.95;2.10;;;10.50;99.90;;;;;;5065781;28;20772;-43
2022/03/18 11:06:43;;;;;;;4.60;2.28;;;10.60;99.90;;;;;;5075519;28;20502;-42
2022/03/18 11:09:13;;;;;;;4.53;2.30;;;10.70;99.90;;;;;;5067601;28;20024;-43
2022/03/18 11:11:41;;;;;;;3.60;1.98;;;10.70;99.90;;;;;;5073367;28;20048;-44
2022/03/18 11:14:09;;;;;;;4.35;1.92;;;10.80;99.90;;;;;;5069792;28;20023;-41
2022/03/18 11:16:38;;;;;;;5.82;2.50;;;10.90;99.90;;;;;;5068147;28;20020;-42
2022/03/18 11:19:09;;;;;;;4.43;2.28;;;10.90;99.90;;;;;;5079310;28;20028;-43
2022/03/18 11:21:35;;;;;;;5.97;2.53;;;11.00;99.90;;;;;;5080400;28;20037;-43
2022/03/18 11:24:06;;;;;;;4.30;2.22;;;11.10;99.90;;;;;;5077621;28;20028;-39
2022/03/18 11:26:34;;;;;;;6.20;2.45;;;11.10;99.90;;;;;;5082622;28;20879;-42
2022/03/18 11:29:13;;;;;;;6.38;2.17;;;11.20;99.90;;;;;;5076598;28;20538;-43
2022/03/18 11:31:39;;;;;;;5.60;2.65;;;11.30;99.90;;;;;;5082012;28;20032;-43
2022/03/18 11:34:14;;;;;;;3.70;2.20;;;11.40;99.90;;;;;;5075126;28;20534;-43
2022/03/18 11:37:04;;;;;;;5.40;2.38;;;11.50;99.90;;;;;;5083608;28;20031;-42
2022/03/18 11:39:30;;;;;;;3.97;2.10;;;11.50;99.90;;;;;;5077121;28;20035;-45
2022/03/18 11:42:03;;;;;;;7.93;2.90;;;11.60;99.80;;;;;;5082840;28;20020;-43
2022/03/18 11:44:43;;;;;;;6.15;2.58;;;11.70;99.90;;;;;;5075758;28;20028;-43
2022/03/18 11:47:28;;;;;;;5.45;2.70;;;11.80;99.50;;;;;;5081923;28;20016;-43
2022/03/18 11:49:53;;;;;;;5.57;2.83;;;11.90;99.30;;;;;;5078089;28;20045;-43
2022/03/18 11:52:19;;;;;;;6.18;2.88;;;12.00;99.20;;;;;;5084221;28;20024;-42
2022/03/18 11:54:50;;;;;;;5.60;2.38;;;12.10;99.10;;;;;;5074894;28;20037;-42
2022/03/18 11:57:33;;;;;;;6.43;2.65;;;12.20;99.00;;;;;;5066108;28;20029;-42
2022/03/18 12:00:00;;;;;;;8.75;3.30;;;12.30;98.80;;;;;;5075449;28;20531;-44
2022/03/18 12:02:35;;;;;;;4.15;2.72;;;12.40;98.50;;;;;;5083501;28;20020;-43
2022/03/18 12:05:02;;;;;;;5.68;2.60;;;12.40;98.40;;;;;;5073016;28;20093;-43
2022/03/18 12:07:30;;;;;;;4.07;2.58;;;12.40;98.30;;;;;;5081834;28;20021;-42
2022/03/18 12:10:05;;;;;;;6.57;2.83;;;12.50;98.40;;;;;;5071513;28;20021;-43
2022/03/18 12:12:40;;;;;;;6.72;2.90;;;12.50;98.20;;;;;;5081943;28;20024;-43
2022/03/18 12:15:18;;;;;;;4.50;2.58;;;12.60;98.20;;;;;;5072014;28;20024;-43
2022/03/18 12:17:49;;;;;;;6.72;3.00;;;12.70;98.20;;;;;;5083251;28;20036;-43
2022/03/18 12:20:30;;;;;;;6.13;2.88;;;12.70;98.00;;;;;;5075361;28;20028;-44
2022/03/18 12:23:02;;;;;;;4.15;2.90;;;12.80;97.80;;;;;;5086934;28;20021;-43
2022/03/18 12:25:27;;;;;;;4.82;2.75;;;12.90;97.70;;;;;;5078233;28;20498;-43
2022/03/18 12:27:54;;;;;;;4.53;2.30;;;13.00;97.70;;;;;;5086943;28;20028;-43
2022/03/18 12:30:26;;;;;;;4.95;2.33;;;13.00;97.70;;;;;;5077815;28;20028;-43
2022/03/18 12:32:58;;;;;;;5.45;2.47;;;13.10;97.60;;;;;;5088360;28;20534;-43
2022/03/18 12:35:35;;;;;;;4.80;2.53;;;13.20;97.40;;;;;;5076141;28;20028;-41
2022/03/18 12:38:04;;;;;;;4.25;2.53;;;13.20;96.70;;;;;;5089053;28;20051;-45
2022/03/18 12:40:30;;;;;;;4.43;2.63;;;13.30;96.40;;;;;;5081477;28;20105;-43
2022/03/18 12:42:58;;;;;;;5.18;2.58;;;13.40;96.50;;;;;;5067230;28;20033;-43
2022/03/18 12:45:25;;;;;;;4.72;2.38;;;13.40;96.50;;;;;;5081198;28;20040;-42
2022/03/18 12:47:53;;;;;;;5.03;2.50;;;13.50;96.50;;;;;;5072212;28;20353;-44
2022/03/18 12:50:18;;;;;;;6.60;2.92;;;13.50;96.00;;;;;;5076042;28;20564;-43
2022/03/18 12:52:44;;;;;;;5.60;2.38;;;13.50;95.80;;;;;;5087458;28;20058;-42
2022/03/18 12:55:17;;;;;;;4.50;2.10;;;13.60;95.40;;;;;;5080108;28;20415;-42
2022/03/18 12:57:42;;;;;;;4.53;2.20;;;13.60;95.40;;;;;;5084806;28;20059;-42
2022/03/18 13:00:11;;;;;;;3.90;2.20;;;13.70;95.40;;;;;;5081040;28;20032;-41
2022/03/18 13:02:37;;;;;;;6.47;2.10;;;13.70;95.20;;;;;;5082799;28;20020;-43
2022/03/18 13:05:05;;;;;;;6.05;2.50;;;13.70;94.60;;;;;;5082733;28;20040;-40
2022/03/18 13:07:31;;;;;;;5.88;2.72;;;13.70;94.20;;;;;;5081145;28;20353;-43
2022/03/18 13:09:57;;;;;;;6.00;3.10;;;13.80;93.90;;;;;;5084508;28;20077;-42
2022/03/18 13:12:29;;;;;;;5.05;2.53;;;13.80;93.50;;;;;;5078463;28;20115;-43
2022/03/18 13:14:56;;;;;;;6.57;2.60;;;13.80;93.70;;;;;;5086183;28;20036;-42
2022/03/18 13:17:33;;;;;;;5.93;2.90;;;13.90;93.40;;;;;;5076141;28;20016;-42
2022/03/18 13:19:58;;;;;;;5.10;3.03;;;13.90;93.40;;;;;;5086416;28;20043;-43
2022/03/18 13:22:28;;;;;;;6.63;2.67;;;13.90;93.50;;;;;;5076788;28;20020;-42